createdAt,value
2023-03-12T00:02:50.837Z,62.36
2023-03-12T00:05:59.153Z,61.59
2023-03-12T00:09:09.588Z,60.94
2023-03-12T00:12:16.173Z,60.99
2023-03-12T00:15:22.513Z,60.67
2023-03-12T00:18:32.041Z,60.04
2023-03-12T00:21:37.845Z,60.00
2023-03-12T00:24:44.568Z,60.69
2023-03-12T00:27:50.587Z,60.45
2023-03-12T00:30:58.624Z,61.82
2023-03-12T00:34:07.165Z,60.31
2023-03-12T00:37:14.221Z,61.23
2023-03-12T00:40:20.438Z,61.82
2023-03-12T00:43:26.884Z,61.57
2023-03-12T00:46:32.902Z,62.50
2023-03-12T00:49:43.319Z,61.80
2023-03-12T00:52:48.867Z,61.88
2023-03-12T00:55:55.281Z,62.85
2023-03-12T00:59:01.221Z,63.01
2023-03-12T01:02:36.336Z,63.44
2023-03-12T01:05:44.771Z,62.84
2023-03-12T01:08:51.255Z,63.97
2023-03-12T01:11:57.091Z,64.04
2023-03-12T01:15:03.835Z,64.12
2023-03-12T01:18:09.739Z,63.47
2023-03-12T01:21:19.543Z,64.30
2023-03-12T01:24:25.609Z,64.55
2023-03-12T01:27:32.478Z,63.63
2023-03-12T01:30:38.544Z,63.87
2023-03-12T01:33:45.331Z,64.12
2023-03-12T01:36:53.743Z,63.46
2023-03-12T01:40:00.444Z,63.30
2023-03-12T01:43:32.841Z,64.03
2023-03-12T01:46:43.369Z,63.55
2023-03-12T01:49:56.362Z,64.33
2023-03-12T01:53:06.304Z,63.67
2023-03-12T01:56:13.629Z,64.12
2023-03-12T01:59:28.935Z,63.21
2023-03-12T02:02:37.053Z,64.39
2023-03-12T02:05:54.991Z,63.13
2023-03-12T02:09:09.091Z,62.80
2023-03-12T02:12:16.391Z,63.57
2023-03-12T02:15:23.743Z,63.01
2023-03-12T02:18:31.321Z,63.56
2023-03-12T02:21:38.724Z,64.06
2023-03-12T02:24:57.227Z,63.64
2023-03-12T02:28:12.439Z,63.54
2023-03-12T02:31:27.443Z,63.43
2023-03-12T02:34:33.466Z,63.54
2023-03-12T02:37:50.045Z,64.34
2023-03-12T02:41:01.648Z,63.44
2023-03-12T02:44:17.972Z,63.54
2023-03-12T02:47:26.530Z,63.71
2023-03-12T02:50:33.443Z,64.37
2023-03-12T02:53:40.246Z,63.89
2023-03-12T02:56:46.600Z,64.85
2023-03-12T02:59:56.063Z,64.35
2023-03-12T03:03:02.330Z,64.77
2023-03-12T03:06:09.316Z,65.04
2023-03-12T03:09:15.046Z,65.26
2023-03-12T03:12:23.269Z,64.63
2023-03-12T03:15:32.169Z,64.42
2023-03-12T03:18:39.216Z,64.81
2023-03-12T03:21:45.122Z,63.68
2023-03-12T03:24:52.628Z,64.12
2023-03-12T03:27:59.109Z,65.11
2023-03-12T03:31:08.734Z,65.04
2023-03-12T03:34:16.496Z,64.46
2023-03-12T03:37:23.542Z,65.05
2023-03-12T03:40:30.061Z,63.47
2023-03-12T03:43:37.143Z,63.53
2023-03-12T03:46:47.156Z,64.71
2023-03-12T03:49:53.877Z,63.54
2023-03-12T03:52:59.854Z,63.44
2023-03-12T03:56:11.035Z,63.94
2023-03-12T03:59:20.091Z,62.37
2023-03-12T04:02:31.844Z,62.55
2023-03-12T04:05:37.879Z,62.91
2023-03-12T04:08:44.437Z,62.18
2023-03-12T04:11:53.357Z,62.61
2023-03-12T04:15:00.515Z,61.25
2023-03-12T04:18:09.193Z,61.88
2023-03-12T04:21:17.914Z,61.03
2023-03-12T04:24:24.615Z,60.28
2023-03-12T04:27:31.649Z,60.66
2023-03-12T04:30:38.605Z,61.37
2023-03-12T04:33:48.802Z,60.00
2023-03-12T04:36:55.362Z,60.67
2023-03-12T04:40:02.167Z,60.15
2023-03-12T04:43:08.492Z,59.61
2023-03-12T04:46:15.216Z,60.61
2023-03-12T04:49:25.132Z,59.91
2023-03-12T04:52:32.491Z,60.62
2023-03-12T04:55:38.202Z,59.38
2023-03-12T04:58:45.072Z,59.51
2023-03-12T05:01:51.732Z,59.85
2023-03-12T05:05:05.844Z,59.89
2023-03-12T05:08:11.697Z,60.20
2023-03-12T05:11:19.468Z,59.37
2023-03-12T05:14:25.250Z,58.82
2023-03-12T05:17:32.800Z,59.43
2023-03-12T05:20:41.376Z,59.92
2023-03-12T05:23:49.247Z,59.00
2023-03-12T05:26:55.496Z,59.43
2023-03-12T05:30:04.904Z,58.72
2023-03-12T05:33:10.771Z,58.11
2023-03-12T05:36:20.754Z,57.88
2023-03-12T05:39:29.136Z,57.91
2023-03-12T05:42:39.953Z,56.64
2023-03-12T05:45:47.663Z,57.40
2023-03-12T05:48:55.223Z,56.41
2023-03-12T05:52:04.225Z,56.40
2023-03-12T05:55:12.590Z,56.52
2023-03-12T05:58:19.278Z,55.97
2023-03-12T06:01:30.124Z,55.43
2023-03-12T06:04:37.840Z,56.11
2023-03-12T06:07:48.059Z,55.71
2023-03-12T06:10:55.195Z,55.21
2023-03-12T06:14:02.953Z,54.78
2023-03-12T06:17:09.457Z,55.10
2023-03-12T06:20:16.953Z,54.56
2023-03-12T06:23:25.740Z,55.42
2023-03-12T06:26:32.887Z,55.23
2023-03-12T06:29:38.831Z,55.12
2023-03-12T06:32:45.542Z,54.19
2023-03-12T06:35:51.494Z,54.61
2023-03-12T06:39:01.239Z,55.35
2023-03-12T06:42:07.094Z,53.70
2023-03-12T06:45:14.732Z,53.51
2023-03-12T06:48:20.912Z,53.79
2023-03-12T06:51:27.595Z,52.79
2023-03-12T06:54:36.371Z,53.23
2023-03-12T06:57:42.982Z,53.55
2023-03-12T07:00:48.972Z,52.43
2023-03-12T07:03:55.897Z,52.75
2023-03-12T07:07:01.499Z,52.89
2023-03-12T07:10:14.365Z,51.49
2023-03-12T07:13:20.625Z,51.98
2023-03-12T07:16:27.555Z,51.65
2023-03-12T07:19:34.198Z,51.11
2023-03-12T07:22:40.981Z,51.09
2023-03-12T07:25:50.453Z,51.01
2023-03-12T07:28:57.033Z,50.57
2023-03-12T07:32:02.996Z,51.15
2023-03-12T07:35:10.863Z,50.65
2023-03-12T07:38:17.814Z,49.80
2023-03-12T07:41:27.531Z,51.21
2023-03-12T07:44:33.927Z,50.75
2023-03-12T07:47:40.681Z,50.68
2023-03-12T07:50:46.731Z,51.31
2023-03-12T07:53:53.697Z,51.20
2023-03-12T07:57:02.331Z,50.23
2023-03-12T08:00:12.654Z,50.91
2023-03-12T08:03:18.929Z,50.75
2023-03-12T08:06:26.038Z,50.50
2023-03-12T08:09:33.022Z,51.50
2023-03-12T08:12:43.182Z,51.63
2023-03-12T08:15:49.727Z,51.46
2023-03-12T08:18:56.781Z,51.50
2023-03-12T08:22:03.056Z,51.46
2023-03-12T08:25:11.728Z,51.87
2023-03-12T08:28:22.229Z,53.07
2023-03-12T08:31:29.621Z,53.26
2023-03-12T08:34:36.179Z,53.44
2023-03-12T08:37:42.921Z,53.44
2023-03-12T08:40:48.770Z,53.11
2023-03-12T08:43:58.173Z,52.04
2023-03-12T08:47:04.321Z,52.77
2023-03-12T08:50:13.653Z,52.98
2023-03-12T08:53:19.867Z,51.97
2023-03-12T08:56:26.607Z,52.45
2023-03-12T08:59:35.367Z,52.30
2023-03-12T09:02:42.406Z,52.55
2023-03-12T09:05:49.152Z,52.60
2023-03-12T09:08:56.184Z,52.41
2023-03-12T09:12:02.152Z,52.18
2023-03-12T09:15:13.294Z,52.13
2023-03-12T09:18:20.534Z,51.43
2023-03-12T09:21:27.639Z,51.74
2023-03-12T09:24:33.628Z,51.45
2023-03-12T09:27:41.737Z,50.87
2023-03-12T09:30:51.773Z,50.89
2023-03-12T09:33:58.926Z,51.00
2023-03-12T09:37:04.942Z,51.08
2023-03-12T09:40:20.244Z,51.22
2023-03-12T09:43:35.181Z,50.75
2023-03-12T09:46:53.987Z,50.33
2023-03-12T09:50:08.934Z,50.14
2023-03-12T09:53:30.537Z,49.66
2023-03-12T09:56:37.931Z,50.20
2023-03-12T09:59:44.862Z,49.87
2023-03-12T10:03:29.760Z,48.17
2023-03-12T10:06:47.351Z,48.59
2023-03-12T10:10:33.383Z,49.19
2023-03-12T10:14:13.102Z,49.55
2023-03-12T10:17:50.072Z,49.25
2023-03-12T10:21:17.438Z,48.95
2023-03-12T10:24:45.790Z,49.34
2023-03-12T10:27:53.482Z,49.58
2023-03-12T10:31:06.649Z,50.17
2023-03-12T10:34:24.786Z,50.60
2023-03-12T10:37:43.208Z,50.49
2023-03-12T10:40:51.593Z,49.68
2023-03-12T10:44:02.325Z,50.50
2023-03-12T10:47:26.926Z,48.58
2023-03-12T10:50:35.772Z,48.97
2023-03-12T10:53:48.305Z,48.39
2023-03-12T10:56:54.955Z,49.20
2023-03-12T11:00:13.244Z,49.36
2023-03-12T11:03:26.187Z,49.49
2023-03-12T11:06:34.290Z,48.66
2023-03-12T11:09:42.674Z,49.07
2023-03-12T11:13:02.893Z,48.19
2023-03-12T11:16:32.294Z,49.53
2023-03-12T11:19:40.616Z,48.21
2023-03-12T11:22:46.259Z,47.99
2023-03-12T11:26:04.036Z,48.48
2023-03-12T11:29:25.953Z,48.69
2023-03-12T11:32:39.390Z,48.91
2023-03-12T11:36:10.523Z,49.23
2023-03-12T11:39:34.822Z,48.25
2023-03-12T11:43:24.073Z,48.64
2023-03-12T11:46:59.763Z,48.03
2023-03-12T11:50:29.711Z,47.84
2023-03-12T11:53:59.973Z,48.43
2023-03-12T11:57:19.420Z,47.69
2023-03-12T12:00:42.687Z,48.56
2023-03-12T12:04:17.774Z,46.81
2023-03-12T12:07:47.711Z,47.55
2023-03-12T12:11:13.205Z,47.89
2023-03-12T12:14:47.058Z,47.97
2023-03-12T12:18:11.231Z,47.96
2023-03-12T12:21:47.234Z,47.25
2023-03-12T12:25:27.112Z,46.28
2023-03-12T12:29:02.506Z,46.30
2023-03-12T12:32:20.963Z,48.06
2023-03-12T12:35:40.451Z,46.73
2023-03-12T12:38:54.376Z,46.83
2023-03-12T12:42:09.277Z,46.68
2023-03-12T12:45:18.892Z,45.17
2023-03-12T12:48:36.799Z,45.84
2023-03-12T12:51:53.840Z,45.66
2023-03-12T12:55:14.078Z,46.07
2023-03-12T12:58:36.887Z,45.74
2023-03-12T13:01:44.750Z,45.50
2023-03-12T13:04:53.065Z,46.29
2023-03-12T13:08:02.390Z,45.78
2023-03-12T13:11:27.038Z,45.90
2023-03-12T13:14:44.256Z,45.72
2023-03-12T13:18:12.362Z,46.19
2023-03-12T13:21:39.066Z,46.65
2023-03-12T13:25:01.326Z,46.01
2023-03-12T13:28:42.541Z,44.65
2023-03-12T13:31:51.345Z,42.11
2023-03-12T13:35:01.626Z,41.65
2023-03-12T13:38:14.879Z,43.08
2023-03-12T13:41:39.034Z,41.74
2023-03-12T13:44:44.802Z,43.06
2023-03-12T13:48:06.379Z,41.85
2023-03-12T13:51:22.025Z,42.27
2023-03-12T13:54:36.764Z,41.66
2023-03-12T13:57:51.029Z,42.01
2023-03-12T14:01:04.479Z,42.12
2023-03-12T14:04:21.731Z,41.43
2023-03-12T14:08:13.975Z,42.56
2023-03-12T14:11:54.139Z,43.42
2023-03-12T14:15:27.149Z,41.70
2023-03-12T14:18:39.346Z,43.29
2023-03-12T14:21:51.451Z,42.05
2023-03-12T14:25:04.680Z,42.86
2023-03-12T14:28:22.526Z,41.74
2023-03-12T14:31:34.882Z,43.14
2023-03-12T14:34:49.241Z,42.31
2023-03-12T14:38:07.184Z,43.15
2023-03-12T14:41:24.746Z,42.42
2023-03-12T14:44:34.192Z,42.60
2023-03-12T14:47:49.803Z,43.18
2023-03-12T14:50:56.047Z,42.36
2023-03-12T14:54:06.735Z,43.09
2023-03-12T14:57:25.179Z,43.55
2023-03-12T15:00:33.419Z,43.70
2023-03-12T15:03:50.397Z,42.31
2023-03-12T15:07:04.753Z,42.74
2023-03-12T15:10:25.114Z,43.03
2023-03-12T15:13:32.336Z,42.83
2023-03-12T15:16:39.785Z,43.56
2023-03-12T15:19:52.131Z,43.37
2023-03-12T15:22:59.807Z,43.98
2023-03-12T15:26:21.945Z,43.84
2023-03-12T15:29:33.804Z,44.81
2023-03-12T15:32:40.879Z,44.10
2023-03-12T15:36:07.788Z,42.77
2023-03-12T15:39:32.210Z,42.57
2023-03-12T15:42:46.873Z,43.15
2023-03-12T15:46:03.963Z,43.84
2023-03-12T15:49:21.880Z,43.43
2023-03-12T15:52:36.126Z,42.95
2023-03-12T15:55:44.796Z,41.43
2023-03-12T15:59:03.264Z,42.55
2023-03-12T16:02:15.680Z,43.25
2023-03-12T16:05:25.111Z,42.67
2023-03-12T16:08:44.410Z,41.17
2023-03-12T16:11:52.738Z,42.13
2023-03-12T16:14:58.949Z,42.58
2023-03-12T16:18:06.194Z,43.62
2023-03-12T16:21:13.298Z,43.39
2023-03-12T16:24:23.167Z,43.05
2023-03-12T16:27:32.745Z,43.34
2023-03-12T16:30:40.715Z,43.79
2023-03-12T16:33:47.515Z,42.70
2023-03-12T16:36:54.638Z,42.81
2023-03-12T16:40:04.377Z,43.45
2023-03-12T16:43:21.099Z,44.63
2023-03-12T16:46:34.715Z,42.70
2023-03-12T16:49:41.871Z,43.15
2023-03-12T16:52:51.367Z,43.34
2023-03-12T16:56:06.456Z,43.72
2023-03-12T16:59:28.214Z,43.24
2023-03-12T17:02:35.699Z,42.24
2023-03-12T17:05:41.734Z,43.23
2023-03-12T17:08:50.380Z,42.57
2023-03-12T17:11:59.859Z,43.47
2023-03-12T17:15:15.209Z,43.29
2023-03-12T17:18:22.683Z,42.68
2023-03-12T17:21:29.947Z,42.92
2023-03-12T17:24:36.645Z,42.99
2023-03-12T17:27:52.547Z,43.11
2023-03-12T17:30:59.298Z,43.77
2023-03-12T17:34:06.182Z,43.54
2023-03-12T17:37:12.418Z,43.61
2023-03-12T17:40:20.608Z,44.82
2023-03-12T17:43:30.494Z,44.22
2023-03-12T17:46:40.689Z,43.42
2023-03-12T17:49:54.118Z,44.13
2023-03-12T17:53:01.476Z,43.56
2023-03-12T17:56:07.904Z,44.52
2023-03-12T17:59:18.564Z,44.81
2023-03-12T18:02:25.447Z,44.40
2023-03-12T18:05:32.737Z,44.02
2023-03-12T18:08:39.512Z,44.09
2023-03-12T18:11:47.223Z,44.19
2023-03-12T18:14:56.253Z,44.03
2023-03-12T18:18:03.620Z,44.82
2023-03-12T18:21:10.390Z,44.50
2023-03-12T18:24:17.551Z,44.35
2023-03-12T18:27:23.758Z,44.89
2023-03-12T18:30:34.184Z,43.91
2023-03-12T18:33:41.988Z,44.13
2023-03-12T18:36:48.856Z,43.77
2023-03-12T18:39:54.923Z,42.76
2023-03-12T18:43:03.319Z,42.43
2023-03-12T18:46:13.343Z,42.46
2023-03-12T18:49:20.382Z,42.88
2023-03-12T18:52:26.435Z,42.94
2023-03-12T18:55:34.457Z,42.31
2023-03-12T18:58:40.667Z,42.96
2023-03-12T19:01:50.797Z,41.76
2023-03-12T19:04:57.266Z,42.14
2023-03-12T19:08:04.420Z,41.19
2023-03-12T19:11:15.082Z,41.90
2023-03-12T19:14:21.961Z,41.85
2023-03-12T19:17:31.099Z,42.01
2023-03-12T19:20:38.049Z,41.92
2023-03-12T19:23:44.244Z,41.00
2023-03-12T19:26:51.231Z,41.73
2023-03-12T19:29:57.325Z,40.83
2023-03-12T19:33:07.510Z,42.05
2023-03-12T19:36:14.142Z,40.94
2023-03-12T19:39:21.870Z,40.96
2023-03-12T19:42:28.323Z,42.11
2023-03-12T19:45:35.563Z,41.04
2023-03-12T19:48:44.959Z,40.68
2023-03-12T19:51:52.263Z,40.48
2023-03-12T19:55:04.857Z,40.98
2023-03-12T19:58:12.988Z,40.75
2023-03-12T20:01:19.391Z,41.99
2023-03-12T20:04:29.832Z,41.13
2023-03-12T20:07:36.407Z,41.16
2023-03-12T20:10:43.531Z,42.46
2023-03-12T20:13:49.561Z,41.64
2023-03-12T20:16:56.739Z,40.96
2023-03-12T20:20:06.754Z,41.38
2023-03-12T20:23:14.190Z,41.17
2023-03-12T20:26:20.288Z,41.73
2023-03-12T20:29:28.137Z,41.13
2023-03-12T20:32:34.386Z,41.53
2023-03-12T20:35:44.595Z,42.14
2023-03-12T20:38:52.985Z,41.55
2023-03-12T20:41:59.946Z,41.92
2023-03-12T20:45:06.176Z,40.96
2023-03-12T20:48:14.757Z,42.14
2023-03-12T20:51:23.406Z,41.96
2023-03-12T20:54:30.619Z,40.95
2023-03-12T20:57:37.692Z,41.39
2023-03-12T21:00:44.671Z,41.18
2023-03-12T21:03:50.830Z,42.30
2023-03-12T21:07:00.353Z,40.81
2023-03-12T21:10:06.457Z,41.34
2023-03-12T21:13:13.325Z,41.72
2023-03-12T21:16:19.227Z,41.46
2023-03-12T21:19:27.258Z,41.24
2023-03-12T21:22:36.236Z,41.36
2023-03-12T21:25:44.916Z,41.41
2023-03-12T21:28:50.875Z,42.16
2023-03-12T21:31:57.871Z,42.65
2023-03-12T21:35:03.920Z,42.30
2023-03-12T21:38:13.533Z,41.90
2023-03-12T21:41:22.489Z,41.99
2023-03-12T21:44:29.125Z,42.71
2023-03-12T21:47:34.888Z,42.14
2023-03-12T21:50:41.467Z,41.49
2023-03-12T21:53:49.995Z,41.66
2023-03-12T21:56:56.681Z,42.65
2023-03-12T22:00:02.542Z,42.43
2023-03-12T22:03:10.919Z,42.71
2023-03-12T22:06:19.763Z,42.53
2023-03-12T22:09:30.036Z,42.60
2023-03-12T22:12:35.896Z,42.57
2023-03-12T22:15:42.486Z,42.42
2023-03-12T22:18:50.244Z,41.88
2023-03-12T22:21:56.939Z,41.89
2023-03-12T22:25:05.909Z,43.28
2023-03-12T22:28:12.498Z,43.39
2023-03-12T22:31:18.314Z,43.43
2023-03-12T22:34:25.186Z,42.85
2023-03-12T22:37:31.140Z,42.74
2023-03-12T22:40:40.864Z,43.63
2023-03-12T22:43:47.879Z,43.15
2023-03-12T22:46:55.155Z,44.22
2023-03-12T22:50:00.876Z,43.44
2023-03-12T22:53:07.389Z,44.01
2023-03-12T22:56:17.922Z,44.76
2023-03-12T22:59:24.637Z,46.10
2023-03-12T23:02:30.696Z,45.76
2023-03-12T23:05:38.254Z,46.53
2023-03-12T23:08:47.512Z,46.77
2023-03-12T23:11:57.215Z,46.41
2023-03-12T23:15:03.037Z,47.75
2023-03-12T23:18:09.578Z,48.29
2023-03-12T23:21:19.259Z,48.18
2023-03-12T23:24:25.782Z,48.06
2023-03-12T23:27:34.767Z,48.61
2023-03-12T23:30:41.342Z,48.53
2023-03-12T23:33:48.425Z,48.62
2023-03-12T23:36:55.029Z,49.21
2023-03-12T23:40:00.641Z,48.32
2023-03-12T23:43:10.266Z,49.21
2023-03-12T23:46:18.491Z,49.94
2023-03-12T23:49:25.701Z,49.68
2023-03-12T23:52:31.380Z,49.56
2023-03-12T23:55:37.972Z,50.59
2023-03-12T23:58:47.963Z,49.74
